Time;durP1;ratioP1;P1;durP2;ratioP2;P2;SDS_P1;SDS_P2;PMS_P1;PMS_P2;Temp;Humidity;BMP_temperature;BMP_pressure;BME280_temperature;BME280_humidity;BME280_pressure;Samples;Min_cycle;Max_cycle;Signal;HPM_P1;HPM_P2
2023/07/10 00:00:34;;;;;;;7.38;1.95;;;;;;;;;;6042625;23;20081;-82
2023/07/10 00:02:59;;;;;;;7.30;2.40;;;;;;;;;;6042193;23;20006;-83
2023/07/10 00:05:24;;;;;;;3.13;1.95;;;;;;;;;;6065244;23;20030;-83
2023/07/10 00:07:49;;;;;;;5.75;1.65;;;;;;;;;;6041426;23;20609;-83
2023/07/10 00:10:16;;;;;;;4.95;1.75;;;;;;;;;;6067005;23;20083;-83
2023/07/10 00:12:42;;;;;;;4.18;1.95;;;;;;;;;;6067378;23;20054;-83
2023/07/10 00:15:15;;;;;;;8.05;1.85;;;;;;;;;;6041590;23;20090;-82
2023/07/10 00:17:40;;;;;;;2.88;1.48;;;;;;;;;;6066847;23;20090;-83
2023/07/10 00:20:13;;;;;;;8.93;1.60;;;;;;;;;;6042183;23;20031;-83
2023/07/10 00:22:38;;;;;;;5.97;1.70;;;;;;;;;;6042082;23;20003;-83
2023/07/10 00:25:03;;;;;;;2.90;1.48;;;;;;;;;;6041094;23;20085;-83
2023/07/10 00:27:29;;;;;;;4.43;1.70;;;;;;;;;;6065443;23;20026;-82
2023/07/10 00:29:54;;;;;;;4.93;1.45;;;;;;;;;;6065814;23;20002;-83
2023/07/10 00:32:19;;;;;;;2.90;1.30;;;;;;;;;;6065072;23;20005;-83
2023/07/10 00:34:44;;;;;;;3.75;1.63;;;;;;;;;;6041630;23;20002;-82
2023/07/10 00:37:10;;;;;;;5.40;1.58;;;;;;;;;;6067236;23;19995;-82
2023/07/10 00:39:36;;;;;;;2.80;1.30;;;;;;;;;;6041848;23;20093;-83
2023/07/10 00:42:08;;;;;;;3.17;1.60;;;;;;;;;;6060948;23;20015;-83
2023/07/10 00:44:54;;;;;;;3.22;1.33;;;;;;;;;;6090981;23;20006;-83
2023/07/10 00:47:39;;;;;;;4.60;1.63;;;;;;;;;;6064560;23;20423;-82
2023/07/10 00:50:09;;;;;;;6.15;1.85;;;;;;;;;;6065418;23;20042;-83
2023/07/10 00:52:39;;;;;;;3.47;1.65;;;;;;;;;;6067327;23;20026;-83
2023/07/10 00:55:15;;;;;;;2.03;1.25;;;;;;;;;;6068100;23;20622;-82
2023/07/10 00:57:42;;;;;;;2.65;1.40;;;;;;;;;;6067645;23;20030;-82
2023/07/10 01:00:16;;;;;;;2.78;1.60;;;;;;;;;;6068600;23;20003;-83
2023/07/10 01:02:41;;;;;;;4.90;1.58;;;;;;;;;;6071786;23;20006;-83
2023/07/10 01:05:07;;;;;;;3.10;1.33;;;;;;;;;;6092739;23;20079;-83
2023/07/10 01:07:35;;;;;;;8.32;1.75;;;;;;;;;;6065817;23;20006;-82
2023/07/10 01:10:01;;;;;;;3.03;1.48;;;;;;;;;;6066016;23;20090;-83
2023/07/10 01:12:28;;;;;;;6.65;1.60;;;;;;;;;;6089870;23;20526;-83
2023/07/10 01:14:53;;;;;;;5.38;1.80;;;;;;;;;;6065693;23;20007;-83
2023/07/10 01:17:19;;;;;;;2.75;1.80;;;;;;;;;;6091022;23;20439;-83
2023/07/10 01:19:45;;;;;;;6.35;1.70;;;;;;;;;;6069054;23;20007;-83
2023/07/10 01:22:11;;;;;;;5.75;1.75;;;;;;;;;;6065430;23;20002;-82
2023/07/10 01:24:36;;;;;;;3.47;1.70;;;;;;;;;;6065528;23;20054;-83
2023/07/10 01:27:03;;;;;;;4.30;1.35;;;;;;;;;;6067169;23;20022;-83
2023/07/10 01:29:35;;;;;;;2.83;1.77;;;;;;;;;;6065013;23;20094;-82
2023/07/10 01:32:04;;;;;;;4.55;1.88;;;;;;;;;;6065390;23;20090;-82
2023/07/10 01:34:37;;;;;;;8.38;1.92;;;;;;;;;;6065014;23;19999;-83
2023/07/10 01:37:03;;;;;;;2.78;1.70;;;;;;;;;;6066270;23;19999;-83
2023/07/10 01:39:32;;;;;;;5.28;1.60;;;;;;;;;;6064729;23;20003;-83
2023/07/10 01:41:57;;;;;;;4.38;1.58;;;;;;;;;;6064917;23;20014;-82
2023/07/10 01:44:27;;;;;;;4.07;1.88;;;;;;;;;;6088600;23;20324;-83
2023/07/10 01:46:53;;;;;;;4.38;1.77;;;;;;;;;;6066378;23;20003;-82
2023/07/10 01:49:21;;;;;;;2.97;1.65;;;;;;;;;;6064721;23;20065;-83
2023/07/10 01:51:46;;;;;;;3.42;1.73;;;;;;;;;;6064406;23;20078;-82
2023/07/10 01:54:14;;;;;;;5.68;1.70;;;;;;;;;;6088887;23;20078;-82
2023/07/10 01:56:39;;;;;;;4.32;1.65;;;;;;;;;;6065243;23;20308;-82
2023/07/10 01:59:04;;;;;;;4.95;1.40;;;;;;;;;;6065422;23;20003;-82
2023/07/10 02:01:30;;;;;;;3.33;1.55;;;;;;;;;;6065016;23;20017;-82
2023/07/10 02:03:55;;;;;;;3.53;1.85;;;;;;;;;;6065022;23;20427;-83
2023/07/10 02:06:21;;;;;;;4.38;1.67;;;;;;;;;;6065025;23;20058;-82
2023/07/10 02:08:47;;;;;;;3.35;1.77;;;;;;;;;;6064937;23;20098;-83
2023/07/10 02:11:12;;;;;;;6.57;1.95;;;;;;;;;;6090799;23;20005;-83
2023/07/10 02:13:40;;;;;;;5.22;1.80;;;;;;;;;;6063949;23;20027;-83
2023/07/10 02:16:09;;;;;;;2.83;1.63;;;;;;;;;;6066302;23;19999;-83
2023/07/10 02:18:34;;;;;;;6.35;1.98;;;;;;;;;;6068395;23;20272;-83
2023/07/10 02:21:00;;;;;;;7.32;2.00;;;;;;;;;;6069109;23;20026;-82
2023/07/10 02:23:28;;;;;;;3.05;1.55;;;;;;;;;;6068607;23;20010;-82
2023/07/10 02:25:54;;;;;;;5.47;1.77;;;;;;;;;;6067583;23;20446;-83
2023/07/10 02:28:19;;;;;;;4.00;1.60;;;;;;;;;;6069535;23;20006;-82
2023/07/10 02:30:45;;;;;;;5.10;1.85;;;;;;;;;;6070213;23;20320;-80
2023/07/10 02:33:11;;;;;;;5.50;2.10;;;;;;;;;;6074429;23;20006;-80
2023/07/10 02:35:36;;;;;;;4.22;1.42;;;;;;;;;;6067254;23;20025;-80
2023/07/10 02:38:02;;;;;;;5.72;2.00;;;;;;;;;;6065793;23;20368;-80
2023/07/10 02:40:27;;;;;;;6.55;2.28;;;;;;;;;;6067155;23;20383;-80
2023/07/10 02:42:52;;;;;;;5.13;2.45;;;;;;;;;;6041605;23;20006;-80
2023/07/10 02:45:19;;;;;;;6.32;1.88;;;;;;;;;;6069524;23;19999;-80
2023/07/10 02:47:44;;;;;;;3.60;2.25;;;;;;;;;;6065439;23;20316;-80
2023/07/10 02:50:10;;;;;;;4.53;2.38;;;;;;;;;;6041133;23;20419;-80
2023/07/10 02:52:35;;;;;;;3.67;2.08;;;;;;;;;;6040382;23;20003;-80
2023/07/10 02:55:03;;;;;;;6.10;2.72;;;;;;;;;;6066734;23;20002;-80
2023/07/10 02:57:29;;;;;;;6.63;2.28;;;;;;;;;;6065357;23;20331;-80
2023/07/10 02:59:54;;;;;;;4.10;2.10;;;;;;;;;;6042934;23;20002;-80
2023/07/10 03:02:19;;;;;;;5.30;1.92;;;;;;;;;;6042827;23;20007;-80
2023/07/10 03:04:44;;;;;;;5.75;2.10;;;;;;;;;;6042630;23;20112;-80
2023/07/10 03:07:10;;;;;;;4.32;2.22;;;;;;;;;;6042846;23;20288;-80
2023/07/10 03:09:35;;;;;;;7.45;1.92;;;;;;;;;;6066630;23;20010;-80
2023/07/10 03:12:01;;;;;;;4.00;2.42;;;;;;;;;;6043221;23;20411;-80
2023/07/10 03:14:26;;;;;;;5.60;1.98;;;;;;;;;;6042459;23;20414;-80
2023/07/10 03:16:54;;;;;;;5.38;2.10;;;;;;;;;;6068027;23;20041;-80
2023/07/10 03:19:19;;;;;;;3.95;2.30;;;;;;;;;;6067892;23;20074;-80
2023/07/10 03:21:44;;;;;;;7.60;2.20;;;;;;;;;;6067697;23;20033;-80
2023/07/10 03:24:09;;;;;;;5.65;1.50;;;;;;;;;;6042001;23;20021;-80
2023/07/10 03:26:35;;;;;;;7.15;2.50;;;;;;;;;;6042000;23;20458;-80
2023/07/10 03:29:03;;;;;;;5.65;2.70;;;;;;;;;;6066330;23;20010;-80
2023/07/10 03:31:28;;;;;;;4.88;2.60;;;;;;;;;;6068359;23;20026;-80
2023/07/10 03:33:54;;;;;;;6.53;2.50;;;;;;;;;;6042515;23;20003;-80
2023/07/10 03:36:20;;;;;;;8.07;2.65;;;;;;;;;;6066580;23;19999;-80
2023/07/10 03:38:45;;;;;;;5.53;2.50;;;;;;;;;;6068745;23;20042;-80
2023/07/10 03:41:11;;;;;;;5.68;2.30;;;;;;;;;;6046987;23;20010;-80
2023/07/10 03:43:37;;;;;;;7.13;2.55;;;;;;;;;;6091091;23;20423;-80
2023/07/10 03:46:02;;;;;;;4.03;2.33;;;;;;;;;;6066985;23;20006;-80
2023/07/10 03:48:27;;;;;;;4.00;2.47;;;;;;;;;;6091254;23;20002;-80
2023/07/10 03:50:53;;;;;;;5.18;2.20;;;;;;;;;;6069176;23;20417;-80
2023/07/10 03:53:18;;;;;;;7.38;2.10;;;;;;;;;;6069012;23;20019;-80
2023/07/10 03:56:07;;;;;;;5.68;2.47;;;;;;;;;;6069049;23;20075;-80
2023/07/10 03:58:33;;;;;;;3.95;2.05;;;;;;;;;;6055848;23;20431;-80
2023/07/10 04:00:58;;;;;;;3.55;1.85;;;;;;;;;;6091610;23;20003;-80
2023/07/10 04:03:25;;;;;;;9.68;2.63;;;;;;;;;;6067528;23;20033;-80
2023/07/10 04:05:52;;;;;;;5.47;2.45;;;;;;;;;;6067895;23;20010;-80
2023/07/10 04:08:19;;;;;;;5.05;2.45;;;;;;;;;;6066518;23;20352;-80
2023/07/10 04:10:48;;;;;;;3.42;2.42;;;;;;;;;;6066269;23;20354;-80
2023/07/10 04:13:21;;;;;;;10.38;2.70;;;;;;;;;;6068978;23;20034;-80
2023/07/10 04:15:58;;;;;;;4.15;2.47;;;;;;;;;;6090738;23;20327;-80
2023/07/10 04:18:26;;;;;;;4.03;2.25;;;;;;;;;;6065389;23;20010;-80
2023/07/10 04:20:53;;;;;;;7.28;2.67;;;;;;;;;;6066096;23;20319;-80
2023/07/10 04:23:18;;;;;;;8.45;2.47;;;;;;;;;;6066468;23;20003;-80
2023/07/10 04:25:45;;;;;;;7.97;3.00;;;;;;;;;;6066144;23;20085;-80
2023/07/10 04:28:10;;;;;;;4.10;2.50;;;;;;;;;;6066095;23;20010;-80
2023/07/10 04:30:38;;;;;;;6.90;2.80;;;;;;;;;;6090023;23;20002;-80
2023/07/10 04:33:03;;;;;;;9.25;2.88;;;;;;;;;;6066130;23;20327;-80
2023/07/10 04:35:31;;;;;;;6.40;2.97;;;;;;;;;;6066141;23;20005;-80
2023/07/10 04:37:56;;;;;;;6.78;2.85;;;;;;;;;;6065848;23;20097;-80
2023/07/10 04:40:21;;;;;;;4.53;2.78;;;;;;;;;;6089820;23;20053;-80
2023/07/10 04:42:49;;;;;;;4.85;2.67;;;;;;;;;;6067826;23;20003;-80
2023/07/10 04:45:15;;;;;;;5.70;2.83;;;;;;;;;;6067856;23;20010;-80
2023/07/10 04:47:43;;;;;;;5.45;2.55;;;;;;;;;;6041973;23;20003;-80
2023/07/10 04:50:08;;;;;;;5.82;2.90;;;;;;;;;;6042328;23;20520;-80
2023/07/10 04:52:33;;;;;;;9.23;3.28;;;;;;;;;;6041975;23;20082;-80
2023/07/10 04:54:59;;;;;;;7.25;2.78;;;;;;;;;;6066249;23;20070;-80
2023/07/10 04:57:24;;;;;;;5.55;2.50;;;;;;;;;;6041940;23;19999;-80
2023/07/10 04:59:52;;;;;;;6.03;2.70;;;;;;;;;;6065889;23;20061;-80
2023/07/10 05:02:17;;;;;;;5.68;2.88;;;;;;;;;;6042065;23;19994;-80
2023/07/10 05:04:42;;;;;;;6.78;3.00;;;;;;;;;;6068326;23;20010;-80
2023/07/10 05:07:09;;;;;;;6.93;2.67;;;;;;;;;;6067803;23;20074;-80
2023/07/10 05:09:35;;;;;;;6.35;2.83;;;;;;;;;;6042361;23;20002;-80
2023/07/10 05:12:00;;;;;;;9.90;3.45;;;;;;;;;;6068430;23;20002;-80
2023/07/10 05:14:26;;;;;;;7.50;3.40;;;;;;;;;;6043409;23;20011;-80
2023/07/10 05:16:51;;;;;;;8.35;3.25;;;;;;;;;;6067009;23;20411;-80
2023/07/10 05:19:17;;;;;;;9.90;3.47;;;;;;;;;;6068587;23;20030;-80
2023/07/10 05:21:42;;;;;;;5.93;3.33;;;;;;;;;;6042007;23;19998;-80
2023/07/10 05:24:08;;;;;;;9.10;3.90;;;;;;;;;;6068615;23;19995;-80
2023/07/10 05:26:33;;;;;;;6.93;3.65;;;;;;;;;;6046649;23;20362;-80
2023/07/10 05:28:59;;;;;;;9.30;3.55;;;;;;;;;;6047708;23;20007;-80
2023/07/10 05:31:24;;;;;;;8.10;3.80;;;;;;;;;;6071443;23;20010;-80
2023/07/10 05:33:50;;;;;;;7.03;3.85;;;;;;;;;;6042663;23;20015;-80
2023/07/10 05:36:16;;;;;;;8.20;3.45;;;;;;;;;;6042382;23;20003;-80
2023/07/10 05:38:42;;;;;;;8.15;3.55;;;;;;;;;;6067581;23;20355;-79
2023/07/10 05:41:08;;;;;;;7.47;3.92;;;;;;;;;;6046145;23;20089;-80
2023/07/10 05:43:34;;;;;;;11.15;4.32;;;;;;;;;;6067466;23;19998;-80
2023/07/10 05:46:00;;;;;;;9.70;3.80;;;;;;;;;;6066361;23;20084;-80
2023/07/10 05:48:28;;;;;;;11.05;3.78;;;;;;;;;;6065377;23;20010;-80
2023/07/10 05:50:56;;;;;;;10.63;3.58;;;;;;;;;;6065424;23;20418;-80
2023/07/10 05:53:22;;;;;;;9.45;3.78;;;;;;;;;;6065629;23;20363;-80
2023/07/10 05:55:54;;;;;;;8.45;3.10;;;;;;;;;;6065646;23;20010;-80
2023/07/10 05:58:19;;;;;;;;;;;;;;;;;;6065384;23;20006;-81
2023/07/10 06:00:46;;;;;;;4.30;1.85;;;;;;;;;;6089060;23;19902;-80
2023/07/10 06:03:11;;;;;;;3.45;2.05;;;;;;;;;;6064920;23;20553;-80
2023/07/10 06:05:39;;;;;;;6.40;1.80;;;;;;;;;;6089240;23;20090;-80
2023/07/10 06:08:04;;;;;;;7.15;2.25;;;;;;;;;;6064427;23;20335;-80
2023/07/10 06:10:29;;;;;;;7.55;2.00;;;;;;;;;;6064887;23;20090;-80
2023/07/10 06:12:58;;;;;;;4.60;1.80;;;;;;;;;;6067178;23;19999;-80
2023/07/10 06:15:23;;;;;;;2.80;1.42;;;;;;;;;;6065571;23;20053;-80
2023/07/10 06:17:48;;;;;;;9.38;2.22;;;;;;;;;;6066151;23;20003;-80
2023/07/10 06:20:14;;;;;;;6.85;2.22;;;;;;;;;;6064887;23;19999;-80
2023/07/10 06:22:41;;;;;;;4.45;1.30;;;;;;;;;;6066676;23;20018;-80
2023/07/10 06:25:07;;;;;;;5.75;2.15;;;;;;;;;;6065043;23;20436;-81
2023/07/10 06:27:32;;;;;;;4.03;1.50;;;;;;;;;;6064776;23;20037;-81
2023/07/10 06:29:58;;;;;;;3.63;1.73;;;;;;;;;;6067001;23;20017;-81
2023/07/10 06:32:24;;;;;;;7.15;1.90;;;;;;;;;;6065502;23;20019;-80
2023/07/10 06:34:49;;;;;;;4.30;1.80;;;;;;;;;;6069981;23;20093;-81
2023/07/10 06:37:14;;;;;;;5.60;2.00;;;;;;;;;;6068216;23;20405;-81
2023/07/10 06:39:40;;;;;;;3.13;1.30;;;;;;;;;;6091497;23;20417;-80
2023/07/10 06:42:05;;;;;;;5.22;1.30;;;;;;;;;;6069273;23;20014;-81
2023/07/10 06:44:31;;;;;;;7.50;1.50;;;;;;;;;;6068040;23;20010;-81
2023/07/10 06:46:56;;;;;;;8.55;1.83;;;;;;;;;;6045881;23;20446;-80
2023/07/10 06:49:21;;;;;;;11.55;1.70;;;;;;;;;;6070063;23;20268;-80
2023/07/10 06:51:46;;;;;;;5.70;1.42;;;;;;;;;;6045457;23;20007;-81
2023/07/10 06:54:12;;;;;;;6.10;1.50;;;;;;;;;;6047138;23;20002;-80
2023/07/10 06:56:37;;;;;;;4.30;1.13;;;;;;;;;;6070063;23;20375;-81
2023/07/10 06:59:03;;;;;;;5.80;1.08;;;;;;;;;;6045288;23;20006;-80
2023/07/10 07:01:28;;;;;;;3.72;0.88;;;;;;;;;;6069918;23;20094;-80
2023/07/10 07:03:57;;;;;;;5.15;1.27;;;;;;;;;;6046467;23;20058;-80
2023/07/10 07:06:26;;;;;;;3.72;1.08;;;;;;;;;;6073293;23;20189;-81
2023/07/10 07:08:52;;;;;;;5.43;1.40;;;;;;;;;;6070536;23;20037;-80
2023/07/10 07:11:17;;;;;;;7.20;2.00;;;;;;;;;;6043752;23;20002;-80
2023/07/10 07:13:42;;;;;;;3.85;1.00;;;;;;;;;;6044283;23;20038;-80
2023/07/10 07:16:08;;;;;;;3.35;1.10;;;;;;;;;;6043120;23;20003;-81
2023/07/10 07:18:34;;;;;;;5.38;1.10;;;;;;;;;;6068176;23;20066;-81
2023/07/10 07:21:00;;;;;;;3.92;1.45;;;;;;;;;;6042988;23;19998;-81
2023/07/10 07:23:26;;;;;;;3.88;1.00;;;;;;;;;;6068342;23;20003;-81
2023/07/10 07:25:52;;;;;;;7.65;1.10;;;;;;;;;;6043136;23;20391;-81
2023/07/10 07:28:18;;;;;;;6.97;1.83;;;;;;;;;;6042839;23;20014;-80
2023/07/10 07:30:47;;;;;;;3.45;1.00;;;;;;;;;;6066840;23;20006;-81
2023/07/10 07:33:13;;;;;;;4.95;1.20;;;;;;;;;;6042885;23;19999;-81
2023/07/10 07:35:38;;;;;;;9.05;0.95;;;;;;;;;;6066781;23;20279;-81
2023/07/10 07:38:04;;;;;;;7.03;1.20;;;;;;;;;;6066627;23;20003;-80
2023/07/10 07:40:29;;;;;;;4.35;1.42;;;;;;;;;;6042564;23;20420;-81
2023/07/10 07:42:54;;;;;;;3.63;0.95;;;;;;;;;;6043011;23;20007;-80
2023/07/10 07:45:19;;;;;;;3.38;1.00;;;;;;;;;;6068450;23;20549;-80
2023/07/10 07:47:45;;;;;;;3.88;0.95;;;;;;;;;;6043003;23;19999;-81
2023/07/10 07:50:10;;;;;;;3.50;0.80;;;;;;;;;;6042572;23;19999;-81
2023/07/10 07:52:36;;;;;;;5.30;0.73;;;;;;;;;;6042265;23;20012;-80
2023/07/10 07:55:01;;;;;;;6.45;1.05;;;;;;;;;;6042397;23;20010;-80
2023/07/10 07:57:27;;;;;;;3.97;0.95;;;;;;;;;;6042544;23;20490;-81
2023/07/10 07:59:52;;;;;;;5.13;1.20;;;;;;;;;;6042304;23;20013;-81
2023/07/10 08:02:18;;;;;;;9.63;1.58;;;;;;;;;;6042673;23;19999;-80
2023/07/10 08:04:43;;;;;;;4.75;1.10;;;;;;;;;;6042681;23;20002;-80
2023/07/10 08:07:09;;;;;;;1.25;0.50;;;;;;;;;;6042433;23;19999;-81
2023/07/10 08:09:34;;;;;;;1.33;0.77;;;;;;;;;;6043292;23;20006;-80
2023/07/10 08:12:00;;;;;;;2.50;0.40;;;;;;;;;;6068822;23;19998;-81
2023/07/10 08:14:26;;;;;;;5.53;1.10;;;;;;;;;;6068659;23;20007;-80
2023/07/10 08:16:51;;;;;;;3.22;0.70;;;;;;;;;;6042922;23;20089;-80
2023/07/10 08:19:17;;;;;;;6.70;0.77;;;;;;;;;;6043385;23;20371;-81
2023/07/10 08:21:42;;;;;;;3.85;1.23;;;;;;;;;;6070007;23;20321;-80
2023/07/10 08:24:07;;;;;;;1.95;0.80;;;;;;;;;;6043711;23;20098;-81
2023/07/10 08:26:33;;;;;;;5.55;1.10;;;;;;;;;;6068830;23;19999;-81
2023/07/10 08:29:18;;;;;;;9.48;1.40;;;;;;;;;;6044321;23;20018;-80
2023/07/10 08:31:43;;;;;;;7.32;1.05;;;;;;;;;;6042733;23;20396;-80
2023/07/10 08:34:08;;;;;;;4.90;1.25;;;;;;;;;;6042693;23;20093;-81
2023/07/10 08:36:34;;;;;;;5.38;1.13;;;;;;;;;;6042780;23;20039;-80
2023/07/10 08:38:59;;;;;;;4.75;0.80;;;;;;;;;;6042155;23;19998;-81
2023/07/10 08:41:24;;;;;;;3.92;0.90;;;;;;;;;;6049096;23;20380;-81
2023/07/10 08:43:49;;;;;;;6.68;1.33;;;;;;;;;;6066524;23;20006;-80
2023/07/10 08:46:19;;;;;;;2.88;0.95;;;;;;;;;;6066475;23;20063;-80
2023/07/10 08:48:44;;;;;;;2.85;0.80;;;;;;;;;;6066831;23;20420;-80
2023/07/10 08:51:21;;;;;;;2.80;1.00;;;;;;;;;;6066585;23;20007;-80
2023/07/10 08:53:51;;;;;;;2.83;0.98;;;;;;;;;;6066381;23;20007;-80
2023/07/10 08:56:34;;;;;;;3.78;0.88;;;;;;;;;;6065968;23;20086;-80
2023/07/10 08:59:24;;;;;;;4.43;1.08;;;;;;;;;;6089937;23;20003;-81
2023/07/10 09:01:49;;;;;;;6.22;1.17;;;;;;;;;;6068073;23;19995;-81
2023/07/10 09:04:16;;;;;;;4.03;1.20;;;;;;;;;;6066279;23;20082;-81
2023/07/10 09:06:45;;;;;;;2.38;0.85;;;;;;;;;;6067833;23;20022;-81
2023/07/10 09:09:22;;;;;;;5.28;0.80;;;;;;;;;;6065528;23;20308;-80
2023/07/10 09:11:48;;;;;;;9.20;0.95;;;;;;;;;;6065668;23;20033;-81
2023/07/10 09:14:21;;;;;;;3.85;0.80;;;;;;;;;;6066270;23;20311;-81
2023/07/10 09:16:47;;;;;;;3.22;0.77;;;;;;;;;;6065965;23;20019;-81
2023/07/10 09:19:18;;;;;;;5.55;0.90;;;;;;;;;;6065468;23;20454;-80
2023/07/10 09:21:43;;;;;;;7.47;1.20;;;;;;;;;;6065944;23;20400;-81
2023/07/10 09:24:18;;;;;;;3.92;0.80;;;;;;;;;;6065391;23;20005;-80
2023/07/10 09:26:43;;;;;;;2.58;0.65;;;;;;;;;;6066062;23;20122;-80
2023/07/10 09:29:14;;;;;;;2.78;0.90;;;;;;;;;;6067404;23;20002;-81
2023/07/10 09:31:58;;;;;;;3.28;0.90;;;;;;;;;;6067629;23;20010;-80
2023/07/10 09:34:27;;;;;;;6.18;1.20;;;;;;;;;;6067418;23;20006;-80
2023/07/10 09:36:53;;;;;;;2.53;0.52;;;;;;;;;;6089550;23;20115;-81
2023/07/10 09:39:19;;;;;;;4.18;0.73;;;;;;;;;;6065632;23;20086;-81
2023/07/10 09:41:45;;;;;;;2.50;0.90;;;;;;;;;;6065719;23;20411;-81
2023/07/10 09:44:15;;;;;;;5.15;0.70;;;;;;;;;;6089971;23;20010;-80
2023/07/10 09:46:43;;;;;;;8.07;0.80;;;;;;;;;;6065610;23;20335;-80
2023/07/10 09:49:14;;;;;;;4.72;0.77;;;;;;;;;;6065830;23;19999;-80
2023/07/10 09:51:50;;;;;;;3.63;0.70;;;;;;;;;;6065750;23;19999;-81
2023/07/10 09:54:16;;;;;;;6.18;1.55;;;;;;;;;;6065984;23;20414;-81
2023/07/10 09:56:41;;;;;;;8.18;0.85;;;;;;;;;;6065196;23;20003;-81
2023/07/10 09:59:33;;;;;;;4.15;1.00;;;;;;;;;;6065482;23;20003;-81
2023/07/10 10:02:02;;;;;;;4.82;0.77;;;;;;;;;;6065804;23;19995;-80
2023/07/10 10:04:29;;;;;;;4.13;0.90;;;;;;;;;;6065549;23;19994;-80
2023/07/10 10:06:55;;;;;;;3.50;0.90;;;;;;;;;;6065052;23;20030;-81
2023/07/10 10:09:22;;;;;;;5.47;1.00;;;;;;;;;;6065123;23;20034;-82
2023/07/10 10:11:48;;;;;;;1.63;0.47;;;;;;;;;;6065532;23;20431;-80
2023/07/10 10:14:15;;;;;;;3.28;0.82;;;;;;;;;;6065792;23;20466;-81
2023/07/10 10:16:47;;;;;;;2.60;0.73;;;;;;;;;;6065494;23;20467;-81
2023/07/10 10:19:15;;;;;;;;;;;;;;;;;;6066363;23;20385;-81
2023/07/10 10:21:40;;;;;;;3.40;0.88;;;;;;;;;;6089254;23;19901;-81
2023/07/10 10:24:09;;;;;;;4.60;0.85;;;;;;;;;;6067134;23;20374;-80
2023/07/10 10:26:53;;;;;;;3.17;0.65;;;;;;;;;;6065338;23;20465;-81
2023/07/10 10:29:28;;;;;;;4.63;0.80;;;;;;;;;;6065224;23;20065;-81
2023/07/10 10:31:59;;;;;;;6.05;1.17;;;;;;;;;;6065288;23;20006;-80
2023/07/10 10:34:27;;;;;;;5.57;1.10;;;;;;;;;;6065540;23;20013;-80
2023/07/10 10:37:03;;;;;;;1.48;0.60;;;;;;;;;;6066403;23;20003;-81
2023/07/10 10:39:38;;;;;;;8.30;0.93;;;;;;;;;;6065126;23;20397;-81
2023/07/10 10:42:09;;;;;;;4.43;0.50;;;;;;;;;;6064583;23;20015;-81
2023/07/10 10:44:44;;;;;;;2.30;0.65;;;;;;;;;;6065310;23;19995;-81
2023/07/10 10:47:09;;;;;;;2.65;0.57;;;;;;;;;;6065035;23;20311;-81
2023/07/10 10:49:42;;;;;;;3.00;0.68;;;;;;;;;;6064947;23;20003;-81
2023/07/10 10:52:26;;;;;;;3.97;0.77;;;;;;;;;;6064853;23;20007;-80
2023/07/10 10:55:10;;;;;;;3.78;0.90;;;;;;;;;;6065320;23;20289;-81
2023/07/10 10:57:48;;;;;;;3.35;0.80;;;;;;;;;;6066517;23;20005;-81
2023/07/10 11:00:26;;;;;;;5.28;0.88;;;;;;;;;;6066786;23;20007;-80
2023/07/10 11:02:51;;;;;;;3.97;1.10;;;;;;;;;;6067191;23;20316;-80
2023/07/10 11:05:35;;;;;;;6.70;0.90;;;;;;;;;;6065339;23;20007;-80
2023/07/10 11:08:03;;;;;;;2.72;0.80;;;;;;;;;;6064960;23;20451;-81
2023/07/10 11:10:36;;;;;;;3.33;0.80;;;;;;;;;;6089102;23;20069;-80
2023/07/10 11:13:02;;;;;;;6.57;1.23;;;;;;;;;;6064881;23;20003;-81
2023/07/10 11:15:29;;;;;;;2.35;0.70;;;;;;;;;;6063123;23;20438;-81
2023/07/10 11:17:55;;;;;;;2.63;0.75;;;;;;;;;;6066257;23;20333;-81
2023/07/10 11:20:25;;;;;;;3.45;1.20;;;;;;;;;;6066517;23;19995;-81
2023/07/10 11:22:54;;;;;;;2.95;0.70;;;;;;;;;;6067226;23;20396;-80
2023/07/10 11:25:35;;;;;;;1.90;0.50;;;;;;;;;;6066530;23;20371;-81
2023/07/10 11:28:01;;;;;;;3.10;1.00;;;;;;;;;;6066909;23;20074;-81
2023/07/10 11:30:34;;;;;;;2.50;0.65;;;;;;;;;;6070347;23;19995;-90
2023/07/10 11:33:04;;;;;;;1.65;0.60;;;;;;;;;;6055763;23;20090;-84
2023/07/10 11:35:30;;;;;;;4.82;0.95;;;;;;;;;;6067403;23;20375;-83
2023/07/10 11:38:09;;;;;;;4.38;0.63;;;;;;;;;;6065452;23;20086;-83
2023/07/10 11:40:38;;;;;;;3.50;1.05;;;;;;;;;;6063608;23;20007;-83
2023/07/10 11:43:22;;;;;;;3.50;0.77;;;;;;;;;;6041069;23;20429;-83
2023/07/10 11:45:51;;;;;;;5.97;1.00;;;;;;;;;;6041282;23;20025;-83
2023/07/10 11:48:37;;;;;;;5.03;1.00;;;;;;;;;;6041412;23;20014;-83
2023/07/10 11:51:02;;;;;;;3.25;0.95;;;;;;;;;;6041850;23;20025;-83
2023/07/10 11:53:27;;;;;;;2.92;0.82;;;;;;;;;;6065841;23;20031;-83
2023/07/10 11:55:57;;;;;;;5.70;1.23;;;;;;;;;;6040691;23;20011;-83
2023/07/10 11:58:30;;;;;;;4.70;1.67;;;;;;;;;;6042082;23;20002;-84
2023/07/10 12:01:14;;;;;;;2.45;0.82;;;;;;;;;;6042209;23;20404;-83
2023/07/10 12:03:40;;;;;;;3.05;1.00;;;;;;;;;;6042089;23;20010;-83
2023/07/10 12:06:19;;;;;;;5.18;0.90;;;;;;;;;;6042234;23;20430;-84
2023/07/10 12:08:45;;;;;;;4.80;0.95;;;;;;;;;;6042196;23;20097;-84
2023/07/10 12:11:26;;;;;;;2.70;0.90;;;;;;;;;;6041910;23;20081;-84
2023/07/10 12:13:51;;;;;;;3.70;1.00;;;;;;;;;;6041231;23;20007;-83
2023/07/10 12:16:17;;;;;;;4.00;1.00;;;;;;;;;;6040502;23;20013;-84
2023/07/10 12:18:43;;;;;;;4.07;1.13;;;;;;;;;;6040713;23;20006;-84
2023/07/10 12:21:12;;;;;;;3.53;1.00;;;;;;;;;;6041754;23;20010;-84
2023/07/10 12:23:38;;;;;;;3.40;0.90;;;;;;;;;;6041465;23;19998;-83
2023/07/10 12:26:14;;;;;;;5.57;0.82;;;;;;;;;;6067463;23;20454;-84
2023/07/10 12:28:40;;;;;;;3.25;1.00;;;;;;;;;;6041571;23;20328;-83
2023/07/10 12:31:10;;;;;;;3.15;0.73;;;;;;;;;;6041256;23;20019;-82
2023/07/10 12:34:02;;;;;;;3.75;0.90;;;;;;;;;;6041404;23;20288;-84
2023/07/10 12:36:27;;;;;;;;;;;;;;;;;;6061219;23;20007;-84
2023/07/10 12:38:54;;;;;;;5.05;1.02;;;;;;;;;;6064995;23;20529;-84
2023/07/10 12:41:19;;;;;;;3.45;0.93;;;;;;;;;;6046662;23;20339;-82
2023/07/10 12:43:52;;;;;;;1.23;0.65;;;;;;;;;;6067146;23;20002;-82
2023/07/10 12:46:21;;;;;;;3.33;0.80;;;;;;;;;;6064868;23;20046;-82
2023/07/10 12:48:48;;;;;;;1.83;0.98;;;;;;;;;;6085928;23;20373;-82
2023/07/10 12:51:20;;;;;;;3.22;1.25;;;;;;;;;;6065251;23;20010;-81
2023/07/10 12:53:45;;;;;;;;;;;;;;;;;;6064064;23;20445;-81
2023/07/10 12:56:23;;;;;;;4.63;0.88;;;;;;;;;;6087001;23;19937;-82
2023/07/10 12:58:49;;;;;;;4.63;1.80;;;;;;;;;;6087980;23;20003;-82
2023/07/10 13:01:17;;;;;;;5.70;1.08;;;;;;;;;;6071835;23;20086;-86
2023/07/10 13:03:43;;;;;;;3.97;1.15;;;;;;;;;;6079449;23;19995;-88
2023/07/10 13:06:08;;;;;;;2.72;0.80;;;;;;;;;;6077909;23;20018;-88
2023/07/10 13:08:38;;;;;;;4.00;1.27;;;;;;;;;;6081583;23;20009;-89
2023/07/10 13:11:04;;;;;;;3.47;1.10;;;;;;;;;;6073163;23;20010;-89
2023/07/10 13:13:39;;;;;;;5.05;0.90;;;;;;;;;;6073042;23;20383;-88
2023/07/10 13:16:13;;;;;;;3.30;1.00;;;;;;;;;;6081763;23;20006;-88
2023/07/10 13:18:39;;;;;;;1.10;0.63;;;;;;;;;;6082332;23;20003;-88
2023/07/10 13:21:05;;;;;;;7.05;1.13;;;;;;;;;;6081611;23;20023;-88
2023/07/10 13:23:30;;;;;;;4.40;0.80;;;;;;;;;;6105062;23;20010;-88
2023/07/10 13:25:56;;;;;;;4.65;1.20;;;;;;;;;;6102958;23;20030;-89
2023/07/10 13:28:26;;;;;;;4.88;0.95;;;;;;;;;;6078519;23;20007;-88
2023/07/10 13:30:51;;;;;;;1.15;0.57;;;;;;;;;;6079956;23;20003;-88
2023/07/10 13:33:22;;;;;;;2.58;0.90;;;;;;;;;;6103319;23;20009;-90
2023/07/10 13:35:48;;;;;;;2.88;1.23;;;;;;;;;;6081603;23;20042;-89
2023/07/10 13:38:14;;;;;;;3.20;0.90;;;;;;;;;;6076701;23;20007;-88
2023/07/10 13:40:39;;;;;;;2.08;0.80;;;;;;;;;;6079001;23;20062;-88
2023/07/10 13:43:13;;;;;;;4.82;1.00;;;;;;;;;;6053014;23;20002;-88
2023/07/10 13:45:39;;;;;;;2.97;1.02;;;;;;;;;;6078246;23;20328;-88
2023/07/10 13:48:09;;;;;;;6.55;1.00;;;;;;;;;;6080543;23;20098;-88
2023/07/10 13:50:34;;;;;;;3.95;0.90;;;;;;;;;;6081394;23;20011;-89
2023/07/10 13:52:59;;;;;;;5.93;1.15;;;;;;;;;;6053492;23;20003;-89
2023/07/10 13:55:24;;;;;;;3.40;0.90;;;;;;;;;;6077836;23;20007;-89
2023/07/10 13:57:50;;;;;;;4.72;0.85;;;;;;;;;;6051121;23;20003;-88
2023/07/10 14:00:15;;;;;;;5.30;1.20;;;;;;;;;;6055246;23;20011;-88
2023/07/10 14:02:43;;;;;;;2.88;1.05;;;;;;;;;;6079421;23;20022;-88
2023/07/10 14:05:12;;;;;;;3.33;0.82;;;;;;;;;;6052185;23;20053;-88
2023/07/10 14:07:38;;;;;;;2.92;1.00;;;;;;;;;;6078794;23;20029;-89
2023/07/10 14:10:04;;;;;;;3.78;1.00;;;;;;;;;;6060607;23;20017;-89
2023/07/10 14:12:31;;;;;;;3.72;1.08;;;;;;;;;;6053178;23;20385;-89
2023/07/10 14:14:58;;;;;;;3.33;1.00;;;;;;;;;;6073198;23;20010;-89
2023/07/10 14:17:28;;;;;;;2.80;0.77;;;;;;;;;;6073376;23;20067;-89
2023/07/10 14:19:56;;;;;;;3.60;1.10;;;;;;;;;;6078235;23;20006;-89
2023/07/10 14:22:23;;;;;;;2.88;1.45;;;;;;;;;;6077122;23;19998;-88
2023/07/10 14:24:50;;;;;;;1.63;0.88;;;;;;;;;;6053384;23;19998;-89
2023/07/10 14:27:20;;;;;;;3.17;0.90;;;;;;;;;;6053448;23;20356;-89
2023/07/10 14:29:46;;;;;;;3.28;0.85;;;;;;;;;;6053278;23;20006;-89
2023/07/10 14:32:16;;;;;;;3.13;1.08;;;;;;;;;;6054077;23;20089;-89
2023/07/10 14:34:42;;;;;;;2.67;1.00;;;;;;;;;;6075904;23;20003;-90
2023/07/10 14:37:11;;;;;;;2.30;1.10;;;;;;;;;;6076448;23;20041;-89
2023/07/10 14:39:36;;;;;;;3.53;1.08;;;;;;;;;;6053292;23;20036;-89
2023/07/10 14:42:07;;;;;;;2.85;1.02;;;;;;;;;;6067683;23;20092;-88
2023/07/10 14:44:32;;;;;;;2.80;0.98;;;;;;;;;;6080456;23;20102;-89
2023/07/10 14:46:57;;;;;;;1.77;0.88;;;;;;;;;;6076584;23;19995;-90